Oak Island, Minnesota
Current Conditions -  °F | °C
As of 10:14 AM on Thursday 29 Jan 2015 (Local Time) from KFGN Reporting Station
Overcast Overcast  
Wind Chill: -20°   Ceiling: 2900
Heat Index:   Visibility: 7mi
Dew Point: -2°   Wind: 26mph
Humidity: 78%   Direction: 320°NW
Pressure: 30.36"   Gusts: NA
Location:  49.3°N, 94.86°W
Report Text: KFGN 291614Z AUTO 32023KT 7SM OVC029 M16/M19 A3036 RMK AO2
Loading
Personal Weather Stations






























Interactive Weather Map New forecast layout! Learn more

10-Day Weather Forecast

Advertisements
Track Severe Weather on mobile